sensor_id;sensor_type;location;lat;lon;timestamp;P1;durP1;ratioP1;P2;durP2;ratioP2
37115;SDS011;23025;41.996;23.098;2022-11-15T00:02:14;1.38;;;1.30;;
37115;SDS011;23025;41.996;23.098;2022-11-15T00:04:41;2.35;;;1.38;;
37115;SDS011;23025;41.996;23.098;2022-11-15T00:07:07;3.13;;;2.50;;
37115;SDS011;23025;41.996;23.098;2022-11-15T00:09:35;2.38;;;2.20;;
37115;SDS011;23025;41.996;23.098;2022-11-15T00:12:01;3.45;;;2.78;;
37115;SDS011;23025;41.996;23.098;2022-11-15T00:14:28;0.88;;;0.85;;
37115;SDS011;23025;41.996;23.098;2022-11-15T00:16:54;2.25;;;2.15;;
37115;SDS011;23025;41.996;23.098;2022-11-15T00:19:21;2.00;;;1.90;;
37115;SDS011;23025;41.996;23.098;2022-11-15T00:21:47;2.97;;;2.03;;
37115;SDS011;23025;41.996;23.098;2022-11-15T00:24:14;0.95;;;0.70;;
37115;SDS011;23025;41.996;23.098;2022-11-15T00:26:42;1.33;;;1.33;;
37115;SDS011;23025;41.996;23.098;2022-11-15T00:29:08;3.55;;;3.33;;
37115;SDS011;23025;41.996;23.098;2022-11-15T00:31:35;4.22;;;2.78;;
37115;SDS011;23025;41.996;23.098;2022-11-15T00:34:01;2.67;;;2.47;;
37115;SDS011;23025;41.996;23.098;2022-11-15T00:36:28;1.42;;;1.33;;
37115;SDS011;23025;41.996;23.098;2022-11-15T00:38:54;2.50;;;2.35;;
37115;SDS011;23025;41.996;23.098;2022-11-15T00:41:21;2.30;;;2.17;;
37115;SDS011;23025;41.996;23.098;2022-11-15T00:43:49;2.45;;;2.30;;
37115;SDS011;23025;41.996;23.098;2022-11-15T00:46:15;10.38;;;3.08;;
37115;SDS011;23025;41.996;23.098;2022-11-15T00:48:42;2.25;;;2.15;;
37115;SDS011;23025;41.996;23.098;2022-11-15T00:51:08;2.65;;;2.55;;
37115;SDS011;23025;41.996;23.098;2022-11-15T00:53:35;1.63;;;1.52;;
37115;SDS011;23025;41.996;23.098;2022-11-15T00:56:01;3.25;;;2.80;;
37115;SDS011;23025;41.996;23.098;2022-11-15T00:58:28;2.65;;;2.55;;
37115;SDS011;23025;41.996;23.098;2022-11-15T01:00:56;4.45;;;3.95;;
37115;SDS011;23025;41.996;23.098;2022-11-15T01:03:22;1.65;;;1.55;;
37115;SDS011;23025;41.996;23.098;2022-11-15T01:05:49;3.03;;;2.85;;
37115;SDS011;23025;41.996;23.098;2022-11-15T01:08:15;4.15;;;1.40;;
37115;SDS011;23025;41.996;23.098;2022-11-15T01:10:42;2.67;;;2.53;;
37115;SDS011;23025;41.996;23.098;2022-11-15T01:13:09;2.90;;;2.67;;
37115;SDS011;23025;41.996;23.098;2022-11-15T01:15:38;4.05;;;3.72;;
37115;SDS011;23025;41.996;23.098;2022-11-15T01:18:06;3.05;;;2.65;;
37115;SDS011;23025;41.996;23.098;2022-11-15T01:20:32;0.85;;;0.85;;
37115;SDS011;23025;41.996;23.098;2022-11-15T01:22:59;2.00;;;1.88;;
37115;SDS011;23025;41.996;23.098;2022-11-15T01:25:25;2.75;;;2.65;;
37115;SDS011;23025;41.996;23.098;2022-11-15T01:27:52;0.57;;;0.57;;
37115;SDS011;23025;41.996;23.098;2022-11-15T01:30:18;1.23;;;1.15;;
37115;SDS011;23025;41.996;23.098;2022-11-15T01:32:45;3.08;;;2.88;;
37115;SDS011;23025;41.996;23.098;2022-11-15T01:35:13;1.63;;;1.52;;
37115;SDS011;23025;41.996;23.098;2022-11-15T01:37:39;1.77;;;1.67;;
37115;SDS011;23025;41.996;23.098;2022-11-15T01:40:06;1.25;;;1.20;;
37115;SDS011;23025;41.996;23.098;2022-11-15T01:42:33;1.65;;;1.55;;
37115;SDS011;23025;41.996;23.098;2022-11-15T01:44:59;5.22;;;4.82;;
37115;SDS011;23025;41.996;23.098;2022-11-15T01:47:27;2.50;;;2.40;;
37115;SDS011;23025;41.996;23.098;2022-11-15T01:49:55;1.42;;;1.33;;
37115;SDS011;23025;41.996;23.098;2022-11-15T01:52:24;3.13;;;2.92;;
37115;SDS011;23025;41.996;23.098;2022-11-15T01:54:53;2.30;;;1.58;;
37115;SDS011;23025;41.996;23.098;2022-11-15T01:57:21;1.33;;;1.27;;
37115;SDS011;23025;41.996;23.098;2022-11-15T01:59:48;1.58;;;1.48;;
37115;SDS011;23025;41.996;23.098;2022-11-15T02:02:14;3.38;;;3.28;;
37115;SDS011;23025;41.996;23.098;2022-11-15T02:04:42;2.20;;;2.00;;
37115;SDS011;23025;41.996;23.098;2022-11-15T02:07:09;0.93;;;0.93;;
37115;SDS011;23025;41.996;23.098;2022-11-15T02:09:38;1.65;;;1.55;;
37115;SDS011;23025;41.996;23.098;2022-11-15T02:12:05;1.52;;;1.42;;
37115;SDS011;23025;41.996;23.098;2022-11-15T02:14:32;1.27;;;1.17;;
37115;SDS011;23025;41.996;23.098;2022-11-15T02:17:01;1.42;;;1.27;;
37115;SDS011;23025;41.996;23.098;2022-11-15T02:19:33;2.13;;;1.98;;
37115;SDS011;23025;41.996;23.098;2022-11-15T02:22:07;1.30;;;1.20;;
37115;SDS011;23025;41.996;23.098;2022-11-15T02:27:51;2.25;;;2.05;;
37115;SDS011;23025;41.996;23.098;2022-11-15T02:30:25;4.53;;;1.98;;
37115;SDS011;23025;41.996;23.098;2022-11-15T02:32:54;0.80;;;0.80;;
37115;SDS011;23025;41.996;23.098;2022-11-15T02:35:27;3.67;;;3.38;;
37115;SDS011;23025;41.996;23.098;2022-11-15T02:37:56;1.98;;;1.88;;
37115;SDS011;23025;41.996;23.098;2022-11-15T02:40:27;2.78;;;1.83;;
37115;SDS011;23025;41.996;23.098;2022-11-15T02:42:55;1.95;;;1.85;;
37115;SDS011;23025;41.996;23.098;2022-11-15T02:45:44;2.33;;;2.13;;
37115;SDS011;23025;41.996;23.098;2022-11-15T02:48:11;0.90;;;0.77;;
37115;SDS011;23025;41.996;23.098;2022-11-15T02:50:38;3.08;;;2.30;;
37115;SDS011;23025;41.996;23.098;2022-11-15T02:53:05;4.10;;;3.38;;
37115;SDS011;23025;41.996;23.098;2022-11-15T02:55:31;1.52;;;1.42;;
37115;SDS011;23025;41.996;23.098;2022-11-15T02:58:03;1.15;;;1.08;;
37115;SDS011;23025;41.996;23.098;2022-11-15T03:00:34;3.05;;;2.92;;
37115;SDS011;23025;41.996;23.098;2022-11-15T03:05:49;2.67;;;1.55;;
37115;SDS011;23025;41.996;23.098;2022-11-15T03:08:21;2.90;;;2.70;;
37115;SDS011;23025;41.996;23.098;2022-11-15T03:10:50;0.80;;;0.80;;
37115;SDS011;23025;41.996;23.098;2022-11-15T03:13:24;2.05;;;1.95;;
37115;SDS011;23025;41.996;23.098;2022-11-15T03:15:53;2.00;;;1.60;;
37115;SDS011;23025;41.996;23.098;2022-11-15T03:18:24;1.77;;;1.67;;
37115;SDS011;23025;41.996;23.098;2022-11-15T03:20:55;2.05;;;1.85;;
37115;SDS011;23025;41.996;23.098;2022-11-15T03:23:24;2.25;;;2.15;;
37115;SDS011;23025;41.996;23.098;2022-11-15T03:25:51;1.65;;;1.55;;
37115;SDS011;23025;41.996;23.098;2022-11-15T03:28:20;3.33;;;1.45;;
37115;SDS011;23025;41.996;23.098;2022-11-15T03:30:48;2.25;;;2.15;;
37115;SDS011;23025;41.996;23.098;2022-11-15T03:33:16;2.45;;;2.05;;
37115;SDS011;23025;41.996;23.098;2022-11-15T03:35:44;4.15;;;3.95;;
37115;SDS011;23025;41.996;23.098;2022-11-15T03:38:14;3.63;;;3.33;;
37115;SDS011;23025;41.996;23.098;2022-11-15T03:40:42;2.63;;;2.53;;
37115;SDS011;23025;41.996;23.098;2022-11-15T03:43:23;4.10;;;3.40;;
37115;SDS011;23025;41.996;23.098;2022-11-15T03:45:51;1.98;;;1.88;;
37115;SDS011;23025;41.996;23.098;2022-11-15T03:48:20;2.33;;;2.22;;
37115;SDS011;23025;41.996;23.098;2022-11-15T03:50:47;1.70;;;1.60;;
37115;SDS011;23025;41.996;23.098;2022-11-15T03:53:16;2.72;;;2.50;;
37115;SDS011;23025;41.996;23.098;2022-11-15T03:55:43;3.03;;;2.00;;
37115;SDS011;23025;41.996;23.098;2022-11-15T03:58:09;2.35;;;1.90;;
37115;SDS011;23025;41.996;23.098;2022-11-15T04:00:36;1.48;;;1.38;;
37115;SDS011;23025;41.996;23.098;2022-11-15T04:03:02;3.05;;;2.85;;
37115;SDS011;23025;41.996;23.098;2022-11-15T04:05:29;1.17;;;1.08;;
37115;SDS011;23025;41.996;23.098;2022-11-15T04:07:55;4.55;;;4.20;;
37115;SDS011;23025;41.996;23.098;2022-11-15T04:10:23;1.30;;;1.20;;
37115;SDS011;23025;41.996;23.098;2022-11-15T04:12:49;1.92;;;1.65;;
37115;SDS011;23025;41.996;23.098;2022-11-15T04:15:16;1.17;;;1.17;;
37115;SDS011;23025;41.996;23.098;2022-11-15T04:17:44;6.60;;;3.53;;
37115;SDS011;23025;41.996;23.098;2022-11-15T04:20:11;2.30;;;2.05;;
37115;SDS011;23025;41.996;23.098;2022-11-15T04:22:55;2.70;;;2.50;;
37115;SDS011;23025;41.996;23.098;2022-11-15T04:25:41;2.20;;;1.95;;
37115;SDS011;23025;41.996;23.098;2022-11-15T04:28:08;2.15;;;2.05;;
37115;SDS011;23025;41.996;23.098;2022-11-15T04:30:35;8.20;;;3.30;;
37115;SDS011;23025;41.996;23.098;2022-11-15T04:33:01;5.28;;;2.85;;
37115;SDS011;23025;41.996;23.098;2022-11-15T04:35:28;2.60;;;2.40;;
37115;SDS011;23025;41.996;23.098;2022-11-15T04:37:54;1.38;;;1.27;;
37115;SDS011;23025;41.996;23.098;2022-11-15T04:40:21;2.70;;;2.60;;
37115;SDS011;23025;41.996;23.098;2022-11-15T04:42:48;3.80;;;2.47;;
37115;SDS011;23025;41.996;23.098;2022-11-15T04:45:15;2.80;;;2.60;;
37115;SDS011;23025;41.996;23.098;2022-11-15T04:47:43;1.85;;;1.73;;
37115;SDS011;23025;41.996;23.098;2022-11-15T04:50:09;2.75;;;2.55;;
37115;SDS011;23025;41.996;23.098;2022-11-15T04:52:38;4.05;;;3.78;;
37115;SDS011;23025;41.996;23.098;2022-11-15T04:55:05;3.80;;;3.20;;
37115;SDS011;23025;41.996;23.098;2022-11-15T04:57:31;2.42;;;2.33;;
37115;SDS011;23025;41.996;23.098;2022-11-15T04:59:59;3.72;;;2.55;;
37115;SDS011;23025;41.996;23.098;2022-11-15T05:02:25;2.67;;;2.47;;
37115;SDS011;23025;41.996;23.098;2022-11-15T05:05:12;4.93;;;1.63;;
37115;SDS011;23025;41.996;23.098;2022-11-15T05:07:38;3.60;;;3.40;;
37115;SDS011;23025;41.996;23.098;2022-11-15T05:10:04;2.97;;;2.78;;
37115;SDS011;23025;41.996;23.098;2022-11-15T05:12:31;3.65;;;3.22;;
37115;SDS011;23025;41.996;23.098;2022-11-15T05:14:59;1.85;;;1.75;;
37115;SDS011;23025;41.996;23.098;2022-11-15T05:17:25;2.45;;;2.20;;
37115;SDS011;23025;41.996;23.098;2022-11-15T05:19:52;3.50;;;3.30;;
37115;SDS011;23025;41.996;23.098;2022-11-15T05:22:18;2.40;;;2.20;;
37115;SDS011;23025;41.996;23.098;2022-11-15T05:24:45;3.53;;;3.33;;
37115;SDS011;23025;41.996;23.098;2022-11-15T05:27:11;3.42;;;3.28;;
37115;SDS011;23025;41.996;23.098;2022-11-15T05:29:38;6.13;;;5.55;;
37115;SDS011;23025;41.996;23.098;2022-11-15T05:32:06;5.05;;;3.50;;
37115;SDS011;23025;41.996;23.098;2022-11-15T05:34:34;4.28;;;3.85;;
37115;SDS011;23025;41.996;23.098;2022-11-15T05:37:01;3.05;;;2.80;;
37115;SDS011;23025;41.996;23.098;2022-11-15T05:39:30;3.92;;;3.55;;
37115;SDS011;23025;41.996;23.098;2022-11-15T05:41:57;5.30;;;4.80;;
37115;SDS011;23025;41.996;23.098;2022-11-15T05:44:25;3.70;;;3.40;;
37115;SDS011;23025;41.996;23.098;2022-11-15T05:46:51;6.22;;;3.22;;
37115;SDS011;23025;41.996;23.098;2022-11-15T05:49:21;4.05;;;2.03;;
37115;SDS011;23025;41.996;23.098;2022-11-15T05:51:49;3.30;;;3.00;;
37115;SDS011;23025;41.996;23.098;2022-11-15T05:54:17;3.58;;;3.38;;
37115;SDS011;23025;41.996;23.098;2022-11-15T05:56:44;6.00;;;5.55;;
37115;SDS011;23025;41.996;23.098;2022-11-15T05:59:11;4.20;;;3.90;;
37115;SDS011;23025;41.996;23.098;2022-11-15T06:01:38;6.07;;;4.25;;
37115;SDS011;23025;41.996;23.098;2022-11-15T06:04:05;5.80;;;5.30;;
37115;SDS011;23025;41.996;23.098;2022-11-15T06:06:33;5.45;;;5.05;;
37115;SDS011;23025;41.996;23.098;2022-11-15T06:08:59;3.67;;;3.05;;
37115;SDS011;23025;41.996;23.098;2022-11-15T06:11:26;1.65;;;1.35;;
37115;SDS011;23025;41.996;23.098;2022-11-15T06:13:52;2.75;;;2.50;;
37115;SDS011;23025;41.996;23.098;2022-11-15T06:16:19;4.00;;;3.72;;
37115;SDS011;23025;41.996;23.098;2022-11-15T06:18:46;3.95;;;2.70;;
37115;SDS011;23025;41.996;23.098;2022-11-15T06:21:12;1.33;;;1.25;;
37115;SDS011;23025;41.996;23.098;2022-11-15T06:23:40;3.65;;;3.45;;
37115;SDS011;23025;41.996;23.098;2022-11-15T06:26:07;3.42;;;2.83;;
37115;SDS011;23025;41.996;23.098;2022-11-15T06:28:34;2.97;;;2.70;;
37115;SDS011;23025;41.996;23.098;2022-11-15T06:31:03;3.78;;;3.28;;
37115;SDS011;23025;41.996;23.098;2022-11-15T06:33:31;1.52;;;1.45;;
37115;SDS011;23025;41.996;23.098;2022-11-15T06:35:59;3.88;;;2.67;;
37115;SDS011;23025;41.996;23.098;2022-11-15T06:38:26;2.38;;;2.28;;
37115;SDS011;23025;41.996;23.098;2022-11-15T06:40:54;4.40;;;3.97;;
37115;SDS011;23025;41.996;23.098;2022-11-15T06:43:20;1.65;;;1.55;;
37115;SDS011;23025;41.996;23.098;2022-11-15T06:45:47;2.00;;;1.90;;
37115;SDS011;23025;41.996;23.098;2022-11-15T06:48:13;4.00;;;3.17;;
37115;SDS011;23025;41.996;23.098;2022-11-15T06:50:40;4.45;;;3.10;;
37115;SDS011;23025;41.996;23.098;2022-11-15T06:53:06;5.00;;;2.65;;
37115;SDS011;23025;41.996;23.098;2022-11-15T06:55:33;4.32;;;4.03;;
37115;SDS011;23025;41.996;23.098;2022-11-15T06:58:01;2.33;;;2.20;;
37115;SDS011;23025;41.996;23.098;2022-11-15T07:00:27;5.72;;;3.08;;
37115;SDS011;23025;41.996;23.098;2022-11-15T07:02:54;3.50;;;3.20;;
37115;SDS011;23025;41.996;23.098;2022-11-15T07:05:20;5.55;;;3.58;;
37115;SDS011;23025;41.996;23.098;2022-11-15T07:07:50;13.63;;;3.95;;
37115;SDS011;23025;41.996;23.098;2022-11-15T07:10:17;4.00;;;3.70;;
37115;SDS011;23025;41.996;23.098;2022-11-15T07:12:46;3.85;;;3.55;;
37115;SDS011;23025;41.996;23.098;2022-11-15T07:15:14;3.70;;;2.35;;
37115;SDS011;23025;41.996;23.098;2022-11-15T07:17:40;3.75;;;3.40;;
37115;SDS011;23025;41.996;23.098;2022-11-15T07:20:07;2.72;;;2.53;;
37115;SDS011;23025;41.996;23.098;2022-11-15T07:22:34;4.95;;;4.55;;
37115;SDS011;23025;41.996;23.098;2022-11-15T07:25:00;5.03;;;3.85;;
37115;SDS011;23025;41.996;23.098;2022-11-15T07:27:27;3.13;;;2.92;;
37115;SDS011;23025;41.996;23.098;2022-11-15T07:29:53;3.20;;;2.63;;
37115;SDS011;23025;41.996;23.098;2022-11-15T07:32:21;14.40;;;3.13;;
37115;SDS011;23025;41.996;23.098;2022-11-15T07:34:48;8.18;;;4.53;;
37115;SDS011;23025;41.996;23.098;2022-11-15T07:37:14;4.80;;;4.40;;
37115;SDS011;23025;41.996;23.098;2022-11-15T07:39:43;4.13;;;3.85;;
37115;SDS011;23025;41.996;23.098;2022-11-15T07:42:10;3.83;;;3.53;;
37115;SDS011;23025;41.996;23.098;2022-11-15T07:44:54;4.00;;;3.58;;
37115;SDS011;23025;41.996;23.098;2022-11-15T07:47:21;6.68;;;4.93;;
37115;SDS011;23025;41.996;23.098;2022-11-15T07:49:48;6.38;;;4.93;;
37115;SDS011;23025;41.996;23.098;2022-11-15T07:52:15;4.93;;;4.53;;
37115;SDS011;23025;41.996;23.098;2022-11-15T07:54:41;5.63;;;5.22;;
37115;SDS011;23025;41.996;23.098;2022-11-15T07:57:08;5.53;;;5.03;;
37115;SDS011;23025;41.996;23.098;2022-11-15T07:59:35;3.17;;;2.97;;
37115;SDS011;23025;41.996;23.098;2022-11-15T08:02:01;5.80;;;4.30;;
37115;SDS011;23025;41.996;23.098;2022-11-15T08:04:29;4.35;;;4.03;;
37115;SDS011;23025;41.996;23.098;2022-11-15T08:06:56;6.63;;;6.05;;
37115;SDS011;23025;41.996;23.098;2022-11-15T08:09:22;5.57;;;3.85;;
37115;SDS011;23025;41.996;23.098;2022-11-15T08:11:49;10.55;;;4.22;;
37115;SDS011;23025;41.996;23.098;2022-11-15T08:14:15;6.45;;;5.47;;
37115;SDS011;23025;41.996;23.098;2022-11-15T08:16:42;12.15;;;6.65;;
37115;SDS011;23025;41.996;23.098;2022-11-15T08:19:08;8.02;;;5.68;;
37115;SDS011;23025;41.996;23.098;2022-11-15T08:21:36;3.80;;;3.50;;
37115;SDS011;23025;41.996;23.098;2022-11-15T08:24:03;7.88;;;5.85;;
37115;SDS011;23025;41.996;23.098;2022-11-15T08:26:29;5.63;;;5.18;;
37115;SDS011;23025;41.996;23.098;2022-11-15T08:28:56;25.02;;;8.57;;
37115;SDS011;23025;41.996;23.098;2022-11-15T08:31:22;7.78;;;6.72;;
37115;SDS011;23025;41.996;23.098;2022-11-15T08:33:49;4.15;;;3.85;;
37115;SDS011;23025;41.996;23.098;2022-11-15T08:36:16;7.68;;;5.78;;
37115;SDS011;23025;41.996;23.098;2022-11-15T08:38:44;5.60;;;5.10;;
37115;SDS011;23025;41.996;23.098;2022-11-15T08:41:12;3.72;;;3.40;;
37115;SDS011;23025;41.996;23.098;2022-11-15T08:43:42;10.30;;;7.03;;
37115;SDS011;23025;41.996;23.098;2022-11-15T08:46:09;7.05;;;4.15;;
37115;SDS011;23025;41.996;23.098;2022-11-15T08:48:37;6.13;;;5.53;;
37115;SDS011;23025;41.996;23.098;2022-11-15T08:51:04;6.13;;;5.53;;
37115;SDS011;23025;41.996;23.098;2022-11-15T08:53:30;2.83;;;2.63;;
37115;SDS011;23025;41.996;23.098;2022-11-15T08:55:58;7.53;;;6.63;;
37115;SDS011;23025;41.996;23.098;2022-11-15T08:58:24;8.75;;;6.80;;
37115;SDS011;23025;41.996;23.098;2022-11-15T09:00:51;8.60;;;6.28;;
37115;SDS011;23025;41.996;23.098;2022-11-15T09:03:18;19.00;;;8.02;;
37115;SDS011;23025;41.996;23.098;2022-11-15T09:05:44;13.82;;;6.20;;
37115;SDS011;23025;41.996;23.098;2022-11-15T09:08:11;9.00;;;5.68;;
37115;SDS011;23025;41.996;23.098;2022-11-15T09:10:38;9.77;;;7.75;;
37115;SDS011;23025;41.996;23.098;2022-11-15T09:13:06;12.25;;;6.13;;
37115;SDS011;23025;41.996;23.098;2022-11-15T09:15:32;9.27;;;7.93;;
37115;SDS011;23025;41.996;23.098;2022-11-15T09:17:59;5.55;;;3.97;;
37115;SDS011;23025;41.996;23.098;2022-11-15T09:20:25;12.50;;;9.38;;
37115;SDS011;23025;41.996;23.098;2022-11-15T09:22:52;6.10;;;5.55;;
37115;SDS011;23025;41.996;23.098;2022-11-15T09:25:18;9.15;;;7.95;;
37115;SDS011;23025;41.996;23.098;2022-11-15T09:27:45;6.13;;;5.30;;
37115;SDS011;23025;41.996;23.098;2022-11-15T09:30:13;5.07;;;4.63;;
37115;SDS011;23025;41.996;23.098;2022-11-15T09:32:39;6.80;;;4.78;;
37115;SDS011;23025;41.996;23.098;2022-11-15T09:35:06;7.05;;;6.55;;
37115;SDS011;23025;41.996;23.098;2022-11-15T09:37:33;9.07;;;7.45;;
37115;SDS011;23025;41.996;23.098;2022-11-15T09:39:59;4.43;;;3.20;;
37115;SDS011;23025;41.996;23.098;2022-11-15T09:42:30;8.18;;;5.45;;
37115;SDS011;23025;41.996;23.098;2022-11-15T09:45:03;7.38;;;6.63;;
37115;SDS011;23025;41.996;23.098;2022-11-15T09:47:56;5.93;;;5.38;;
37115;SDS011;23025;41.996;23.098;2022-11-15T09:50:28;6.85;;;6.15;;
37115;SDS011;23025;41.996;23.098;2022-11-15T09:52:57;6.85;;;5.38;;
37115;SDS011;23025;41.996;23.098;2022-11-15T09:55:26;6.20;;;5.65;;
37115;SDS011;23025;41.996;23.098;2022-11-15T09:57:59;7.30;;;4.60;;
37115;SDS011;23025;41.996;23.098;2022-11-15T10:00:28;5.18;;;4.15;;
37115;SDS011;23025;41.996;23.098;2022-11-15T10:03:06;12.55;;;8.90;;
37115;SDS011;23025;41.996;23.098;2022-11-15T10:05:36;8.15;;;7.53;;
37115;SDS011;23025;41.996;23.098;2022-11-15T10:08:05;7.07;;;6.57;;
37115;SDS011;23025;41.996;23.098;2022-11-15T10:10:34;9.25;;;6.63;;
37115;SDS011;23025;41.996;23.098;2022-11-15T10:13:02;5.88;;;4.00;;
37115;SDS011;23025;41.996;23.098;2022-11-15T10:15:29;12.82;;;6.32;;
37115;SDS011;23025;41.996;23.098;2022-11-15T10:18:01;6.90;;;6.30;;
37115;SDS011;23025;41.996;23.098;2022-11-15T10:20:33;7.25;;;6.07;;
37115;SDS011;23025;41.996;23.098;2022-11-15T10:23:04;8.20;;;5.97;;
37115;SDS011;23025;41.996;23.098;2022-11-15T10:25:32;8.98;;;6.43;;
37115;SDS011;23025;41.996;23.098;2022-11-15T10:27:59;7.22;;;6.63;;
37115;SDS011;23025;41.996;23.098;2022-11-15T10:30:30;5.00;;;4.43;;
37115;SDS011;23025;41.996;23.098;2022-11-15T10:32:57;10.93;;;5.35;;
37115;SDS011;23025;41.996;23.098;2022-11-15T10:35:24;7.15;;;6.38;;
37115;SDS011;23025;41.996;23.098;2022-11-15T10:37:52;9.25;;;7.07;;
37115;SDS011;23025;41.996;23.098;2022-11-15T10:40:30;13.25;;;7.88;;
37115;SDS011;23025;41.996;23.098;2022-11-15T10:43:03;4.57;;;4.35;;
37115;SDS011;23025;41.996;23.098;2022-11-15T10:45:31;11.30;;;6.88;;
37115;SDS011;23025;41.996;23.098;2022-11-15T10:50:39;8.75;;;5.15;;
37115;SDS011;23025;41.996;23.098;2022-11-15T10:53:12;13.02;;;6.22;;
37115;SDS011;23025;41.996;23.098;2022-11-15T10:55:41;11.98;;;6.10;;
37115;SDS011;23025;41.996;23.098;2022-11-15T10:58:19;7.40;;;6.30;;
37115;SDS011;23025;41.996;23.098;2022-11-15T11:00:46;6.57;;;6.07;;
37115;SDS011;23025;41.996;23.098;2022-11-15T11:03:24;10.70;;;5.82;;
37115;SDS011;23025;41.996;23.098;2022-11-15T11:06:02;8.02;;;7.22;;
37115;SDS011;23025;41.996;23.098;2022-11-15T11:08:30;9.52;;;8.82;;
37115;SDS011;23025;41.996;23.098;2022-11-15T11:10:58;7.32;;;6.65;;
37115;SDS011;23025;41.996;23.098;2022-11-15T11:13:26;7.70;;;7.07;;
37115;SDS011;23025;41.996;23.098;2022-11-15T11:15:53;7.70;;;6.28;;
37115;SDS011;23025;41.996;23.098;2022-11-15T11:18:23;12.15;;;6.45;;
37115;SDS011;23025;41.996;23.098;2022-11-15T11:20:51;12.38;;;8.77;;
37115;SDS011;23025;41.996;23.098;2022-11-15T11:23:28;8.80;;;7.65;;
37115;SDS011;23025;41.996;23.098;2022-11-15T11:26:01;7.40;;;6.68;;
37115;SDS011;23025;41.996;23.098;2022-11-15T11:28:35;10.10;;;8.88;;
37115;SDS011;23025;41.996;23.098;2022-11-15T11:31:10;7.25;;;5.65;;
37115;SDS011;23025;41.996;23.098;2022-11-15T11:33:41;8.23;;;7.63;;
37115;SDS011;23025;41.996;23.098;2022-11-15T11:36:15;9.85;;;8.65;;
37115;SDS011;23025;41.996;23.098;2022-11-15T11:38:47;5.43;;;5.03;;
37115;SDS011;23025;41.996;23.098;2022-11-15T11:41:20;4.82;;;4.43;;
37115;SDS011;23025;41.996;23.098;2022-11-15T11:43:53;7.03;;;6.45;;
37115;SDS011;23025;41.996;23.098;2022-11-15T11:46:35;10.15;;;9.20;;
37115;SDS011;23025;41.996;23.098;2022-11-15T11:49:08;8.10;;;6.70;;
37115;SDS011;23025;41.996;23.098;2022-11-15T11:51:35;11.23;;;8.82;;
37115;SDS011;23025;41.996;23.098;2022-11-15T11:54:03;17.25;;;8.43;;
37115;SDS011;23025;41.996;23.098;2022-11-15T11:56:33;10.70;;;9.60;;
37115;SDS011;23025;41.996;23.098;2022-11-15T11:59:02;14.38;;;8.75;;
37115;SDS011;23025;41.996;23.098;2022-11-15T12:01:32;12.43;;;7.88;;
37115;SDS011;23025;41.996;23.098;2022-11-15T12:04:01;14.32;;;13.20;;
37115;SDS011;23025;41.996;23.098;2022-11-15T12:06:30;9.48;;;8.95;;
37115;SDS011;23025;41.996;23.098;2022-11-15T12:09:00;9.55;;;8.43;;
37115;SDS011;23025;41.996;23.098;2022-11-15T12:11:28;6.95;;;6.47;;
37115;SDS011;23025;41.996;23.098;2022-11-15T12:13:57;8.98;;;8.00;;
37115;SDS011;23025;41.996;23.098;2022-11-15T12:16:26;5.05;;;4.55;;
37115;SDS011;23025;41.996;23.098;2022-11-15T12:18:53;14.30;;;13.38;;
37115;SDS011;23025;41.996;23.098;2022-11-15T12:21:22;6.13;;;5.47;;
37115;SDS011;23025;41.996;23.098;2022-11-15T12:26:18;6.75;;;6.25;;
37115;SDS011;23025;41.996;23.098;2022-11-15T12:28:46;7.65;;;7.15;;
37115;SDS011;23025;41.996;23.098;2022-11-15T12:31:16;11.60;;;10.57;;
37115;SDS011;23025;41.996;23.098;2022-11-15T12:33:44;7.22;;;5.30;;
37115;SDS011;23025;41.996;23.098;2022-11-15T12:36:12;11.07;;;7.90;;
37115;SDS011;23025;41.996;23.098;2022-11-15T12:38:56;5.20;;;4.72;;
37115;SDS011;23025;41.996;23.098;2022-11-15T12:41:23;8.20;;;7.40;;
37115;SDS011;23025;41.996;23.098;2022-11-15T12:43:50;8.45;;;7.80;;
37115;SDS011;23025;41.996;23.098;2022-11-15T12:46:22;6.32;;;5.45;;
37115;SDS011;23025;41.996;23.098;2022-11-15T12:48:51;6.28;;;5.72;;
37115;SDS011;23025;41.996;23.098;2022-11-15T12:51:19;7.38;;;6.78;;
37115;SDS011;23025;41.996;23.098;2022-11-15T12:53:46;5.38;;;5.00;;
37115;SDS011;23025;41.996;23.098;2022-11-15T12:56:20;6.10;;;5.60;;
37115;SDS011;23025;41.996;23.098;2022-11-15T12:58:47;7.07;;;6.57;;
37115;SDS011;23025;41.996;23.098;2022-11-15T13:04:11;8.55;;;7.90;;
37115;SDS011;23025;41.996;23.098;2022-11-15T13:06:40;11.20;;;10.52;;
37115;SDS011;23025;41.996;23.098;2022-11-15T13:11:49;6.53;;;5.43;;
37115;SDS011;23025;41.996;23.098;2022-11-15T13:17:01;6.07;;;5.50;;
37115;SDS011;23025;41.996;23.098;2022-11-15T13:19:29;13.02;;;12.35;;
37115;SDS011;23025;41.996;23.098;2022-11-15T13:21:55;5.15;;;4.75;;
37115;SDS011;23025;41.996;23.098;2022-11-15T13:24:40;4.72;;;4.25;;
37115;SDS011;23025;41.996;23.098;2022-11-15T13:27:09;8.00;;;5.60;;
37115;SDS011;23025;41.996;23.098;2022-11-15T13:29:37;5.32;;;4.95;;
37115;SDS011;23025;41.996;23.098;2022-11-15T13:32:03;7.38;;;6.85;;
37115;SDS011;23025;41.996;23.098;2022-11-15T13:34:32;5.20;;;4.18;;
37115;SDS011;23025;41.996;23.098;2022-11-15T13:37:00;6.05;;;5.63;;
37115;SDS011;23025;41.996;23.098;2022-11-15T13:39:28;5.72;;;5.28;;
37115;SDS011;23025;41.996;23.098;2022-11-15T13:41:55;5.72;;;5.18;;
37115;SDS011;23025;41.996;23.098;2022-11-15T13:44:22;8.07;;;7.38;;
37115;SDS011;23025;41.996;23.098;2022-11-15T13:46:49;6.28;;;5.78;;
37115;SDS011;23025;41.996;23.098;2022-11-15T13:49:28;4.97;;;4.57;;
37115;SDS011;23025;41.996;23.098;2022-11-15T13:51:56;8.10;;;6.20;;
37115;SDS011;23025;41.996;23.098;2022-11-15T13:54:24;7.85;;;7.07;;
37115;SDS011;23025;41.996;23.098;2022-11-15T13:56:53;3.92;;;3.63;;
37115;SDS011;23025;41.996;23.098;2022-11-15T13:59:23;13.65;;;12.75;;
37115;SDS011;23025;41.996;23.098;2022-11-15T14:01:50;7.82;;;7.20;;
37115;SDS011;23025;41.996;23.098;2022-11-15T14:04:18;6.85;;;6.20;;
37115;SDS011;23025;41.996;23.098;2022-11-15T14:06:45;11.40;;;10.57;;
37115;SDS011;23025;41.996;23.098;2022-11-15T14:09:24;4.82;;;4.43;;
37115;SDS011;23025;41.996;23.098;2022-11-15T14:11:52;8.85;;;8.05;;
37115;SDS011;23025;41.996;23.098;2022-11-15T14:14:19;7.07;;;6.43;;
37115;SDS011;23025;41.996;23.098;2022-11-15T14:16:46;6.07;;;5.50;;
37115;SDS011;23025;41.996;23.098;2022-11-15T14:25:06;6.80;;;4.97;;
37115;SDS011;23025;41.996;23.098;2022-11-15T14:27:33;9.15;;;4.90;;
37115;SDS011;23025;41.996;23.098;2022-11-15T14:30:00;9.68;;;8.90;;
37115;SDS011;23025;41.996;23.098;2022-11-15T14:32:27;8.10;;;6.65;;
37115;SDS011;23025;41.996;23.098;2022-11-15T14:34:54;6.88;;;6.18;;
37115;SDS011;23025;41.996;23.098;2022-11-15T14:37:23;6.38;;;5.80;;
37115;SDS011;23025;41.996;23.098;2022-11-15T14:39:50;8.13;;;7.50;;
37115;SDS011;23025;41.996;23.098;2022-11-15T14:42:18;6.88;;;6.35;;
37115;SDS011;23025;41.996;23.098;2022-11-15T14:44:45;16.85;;;15.75;;
37115;SDS011;23025;41.996;23.098;2022-11-15T14:47:11;8.07;;;7.38;;
37115;SDS011;23025;41.996;23.098;2022-11-15T14:49:38;5.15;;;4.85;;
37115;SDS011;23025;41.996;23.098;2022-11-15T14:52:07;9.98;;;7.07;;
37115;SDS011;23025;41.996;23.098;2022-11-15T14:54:33;6.90;;;6.30;;
37115;SDS011;23025;41.996;23.098;2022-11-15T14:57:00;7.82;;;7.10;;
37115;SDS011;23025;41.996;23.098;2022-11-15T14:59:28;8.48;;;7.05;;
37115;SDS011;23025;41.996;23.098;2022-11-15T15:01:54;6.63;;;6.03;;
37115;SDS011;23025;41.996;23.098;2022-11-15T15:04:21;7.18;;;6.13;;
37115;SDS011;23025;41.996;23.098;2022-11-15T15:06:47;7.47;;;6.88;;